sensor_id;sensor_type;location;lat;lon;timestamp;P1;durP1;ratioP1;P2;durP2;ratioP2
51810;SDS011;52468;40.116;18.296;2023-05-10T00:01:35;10.87;;;5.77;;
51810;SDS011;52468;40.116;18.296;2023-05-10T00:04:03;9.30;;;6.03;;
51810;SDS011;52468;40.116;18.296;2023-05-10T00:06:31;8.07;;;5.10;;
51810;SDS011;52468;40.116;18.296;2023-05-10T00:08:59;7.07;;;5.63;;
51810;SDS011;52468;40.116;18.296;2023-05-10T00:11:27;5.80;;;4.77;;
51810;SDS011;52468;40.116;18.296;2023-05-10T00:13:55;6.13;;;4.30;;
51810;SDS011;52468;40.116;18.296;2023-05-10T00:16:23;8.83;;;4.70;;
51810;SDS011;52468;40.116;18.296;2023-05-10T00:18:51;6.60;;;4.90;;
51810;SDS011;52468;40.116;18.296;2023-05-10T00:21:19;6.77;;;4.33;;
51810;SDS011;52468;40.116;18.296;2023-05-10T00:23:47;5.63;;;4.13;;
51810;SDS011;52468;40.116;18.296;2023-05-10T00:26:14;6.03;;;5.10;;
51810;SDS011;52468;40.116;18.296;2023-05-10T00:28:49;8.53;;;5.10;;
51810;SDS011;52468;40.116;18.296;2023-05-10T00:31:17;8.37;;;5.20;;
51810;SDS011;52468;40.116;18.296;2023-05-10T00:33:45;7.00;;;4.47;;
51810;SDS011;52468;40.116;18.296;2023-05-10T00:36:13;7.23;;;5.30;;
51810;SDS011;52468;40.116;18.296;2023-05-10T00:38:41;7.07;;;5.13;;
51810;SDS011;52468;40.116;18.296;2023-05-10T00:41:09;6.10;;;4.70;;
51810;SDS011;52468;40.116;18.296;2023-05-10T00:43:39;6.17;;;5.07;;
51810;SDS011;52468;40.116;18.296;2023-05-10T00:46:06;6.03;;;4.67;;
51810;SDS011;52468;40.116;18.296;2023-05-10T00:48:35;9.30;;;5.17;;
51810;SDS011;52468;40.116;18.296;2023-05-10T00:51:03;5.77;;;4.73;;
51810;SDS011;52468;40.116;18.296;2023-05-10T00:53:31;7.63;;;5.57;;
51810;SDS011;52468;40.116;18.296;2023-05-10T00:55:59;6.60;;;4.20;;
51810;SDS011;52468;40.116;18.296;2023-05-10T00:58:28;8.20;;;5.73;;
51810;SDS011;52468;40.116;18.296;2023-05-10T01:00:58;9.60;;;5.40;;
51810;SDS011;52468;40.116;18.296;2023-05-10T01:03:27;7.73;;;4.87;;
51810;SDS011;52468;40.116;18.296;2023-05-10T01:05:55;6.33;;;4.67;;
51810;SDS011;52468;40.116;18.296;2023-05-10T01:08:24;7.53;;;6.30;;
51810;SDS011;52468;40.116;18.296;2023-05-10T01:10:53;8.50;;;5.43;;
51810;SDS011;52468;40.116;18.296;2023-05-10T01:13:40;7.20;;;5.20;;
51810;SDS011;52468;40.116;18.296;2023-05-10T01:16:09;7.67;;;5.00;;
51810;SDS011;52468;40.116;18.296;2023-05-10T01:18:40;8.77;;;5.13;;
51810;SDS011;52468;40.116;18.296;2023-05-10T01:43:08;8.00;;;5.53;;
51810;SDS011;52468;40.116;18.296;2023-05-10T01:45:50;6.70;;;4.70;;
51810;SDS011;52468;40.116;18.296;2023-05-10T01:48:31;7.63;;;5.63;;
51810;SDS011;52468;40.116;18.296;2023-05-10T01:51:00;7.40;;;5.77;;
51810;SDS011;52468;40.116;18.296;2023-05-10T01:53:28;7.03;;;4.70;;
51810;SDS011;52468;40.116;18.296;2023-05-10T01:55:58;7.33;;;5.03;;
51810;SDS011;52468;40.116;18.296;2023-05-10T01:58:28;7.23;;;6.47;;
51810;SDS011;52468;40.116;18.296;2023-05-10T02:01:00;9.33;;;5.97;;
51810;SDS011;52468;40.116;18.296;2023-05-10T02:03:30;5.80;;;4.80;;
51810;SDS011;52468;40.116;18.296;2023-05-10T02:05:59;7.63;;;5.27;;
51810;SDS011;52468;40.116;18.296;2023-05-10T02:08:28;6.03;;;4.63;;
51810;SDS011;52468;40.116;18.296;2023-05-10T02:10:57;7.97;;;4.93;;
51810;SDS011;52468;40.116;18.296;2023-05-10T02:13:27;8.47;;;5.10;;
51810;SDS011;52468;40.116;18.296;2023-05-10T02:15:58;10.07;;;5.70;;
51810;SDS011;52468;40.116;18.296;2023-05-10T02:18:27;6.40;;;5.17;;
51810;SDS011;52468;40.116;18.296;2023-05-10T02:20:55;6.27;;;4.80;;
51810;SDS011;52468;40.116;18.296;2023-05-10T02:23:24;7.67;;;4.57;;
51810;SDS011;52468;40.116;18.296;2023-05-10T02:25:53;6.70;;;5.07;;
51810;SDS011;52468;40.116;18.296;2023-05-10T02:28:24;16.20;;;6.67;;
51810;SDS011;52468;40.116;18.296;2023-05-10T02:30:55;6.30;;;4.50;;
51810;SDS011;52468;40.116;18.296;2023-05-10T02:33:24;7.53;;;4.37;;
51810;SDS011;52468;40.116;18.296;2023-05-10T02:35:53;6.07;;;4.63;;
51810;SDS011;52468;40.116;18.296;2023-05-10T02:38:21;7.67;;;5.03;;
51810;SDS011;52468;40.116;18.296;2023-05-10T02:40:51;7.03;;;5.23;;
51810;SDS011;52468;40.116;18.296;2023-05-10T02:43:22;8.43;;;5.63;;
51810;SDS011;52468;40.116;18.296;2023-05-10T02:45:51;8.97;;;5.23;;
51810;SDS011;52468;40.116;18.296;2023-05-10T02:48:19;5.90;;;4.70;;
51810;SDS011;52468;40.116;18.296;2023-05-10T02:50:47;8.40;;;5.13;;
51810;SDS011;52468;40.116;18.296;2023-05-10T02:53:21;7.00;;;4.83;;
51810;SDS011;52468;40.116;18.296;2023-05-10T02:55:51;9.20;;;6.07;;
51810;SDS011;52468;40.116;18.296;2023-05-10T02:58:21;9.43;;;5.73;;
51810;SDS011;52468;40.116;18.296;2023-05-10T03:00:49;7.67;;;5.03;;
51810;SDS011;52468;40.116;18.296;2023-05-10T03:03:17;8.23;;;5.70;;
51810;SDS011;52468;40.116;18.296;2023-05-10T03:05:45;6.67;;;4.90;;
51810;SDS011;52468;40.116;18.296;2023-05-10T03:08:13;8.87;;;4.83;;
51810;SDS011;52468;40.116;18.296;2023-05-10T03:10:44;7.17;;;4.97;;
51810;SDS011;52468;40.116;18.296;2023-05-10T03:16:18;6.77;;;5.30;;
51810;SDS011;52468;40.116;18.296;2023-05-10T03:21:29;7.68;;;5.35;;
51810;SDS011;52468;40.116;18.296;2023-05-10T03:26:27;8.60;;;5.00;;
51810;SDS011;52468;40.116;18.296;2023-05-10T03:29:10;8.83;;;5.40;;
51810;SDS011;52468;40.116;18.296;2023-05-10T03:31:40;7.80;;;5.03;;
51810;SDS011;52468;40.116;18.296;2023-05-10T03:34:09;9.30;;;6.43;;
51810;SDS011;52468;40.116;18.296;2023-05-10T03:36:39;8.13;;;5.53;;
51810;SDS011;52468;40.116;18.296;2023-05-10T03:39:07;7.07;;;4.80;;
51810;SDS011;52468;40.116;18.296;2023-05-10T03:41:34;10.27;;;4.93;;
51810;SDS011;52468;40.116;18.296;2023-05-10T03:44:02;7.47;;;5.10;;
51810;SDS011;52468;40.116;18.296;2023-05-10T03:46:30;8.10;;;5.60;;
51810;SDS011;52468;40.116;18.296;2023-05-10T03:48:58;9.83;;;5.57;;
51810;SDS011;52468;40.116;18.296;2023-05-10T03:51:26;6.40;;;5.17;;
51810;SDS011;52468;40.116;18.296;2023-05-10T03:53:55;6.57;;;5.40;;
51810;SDS011;52468;40.116;18.296;2023-05-10T03:56:23;8.13;;;5.77;;
51810;SDS011;52468;40.116;18.296;2023-05-10T03:58:51;6.60;;;5.50;;
51810;SDS011;52468;40.116;18.296;2023-05-10T04:01:18;10.67;;;4.40;;
51810;SDS011;52468;40.116;18.296;2023-05-10T04:03:46;8.20;;;5.60;;
51810;SDS011;52468;40.116;18.296;2023-05-10T04:06:14;6.60;;;4.83;;
51810;SDS011;52468;40.116;18.296;2023-05-10T04:08:42;8.03;;;5.03;;
51810;SDS011;52468;40.116;18.296;2023-05-10T04:11:11;5.53;;;5.00;;
51810;SDS011;52468;40.116;18.296;2023-05-10T04:13:39;6.83;;;5.17;;
51810;SDS011;52468;40.116;18.296;2023-05-10T04:16:07;7.10;;;6.07;;
51810;SDS011;52468;40.116;18.296;2023-05-10T04:18:35;7.73;;;5.60;;
51810;SDS011;52468;40.116;18.296;2023-05-10T04:21:03;7.53;;;5.83;;
51810;SDS011;52468;40.116;18.296;2023-05-10T04:23:31;8.37;;;5.70;;
51810;SDS011;52468;40.116;18.296;2023-05-10T04:25:59;8.03;;;5.60;;
51810;SDS011;52468;40.116;18.296;2023-05-10T04:28:28;7.03;;;4.83;;
51810;SDS011;52468;40.116;18.296;2023-05-10T04:31:05;6.10;;;4.47;;
51810;SDS011;52468;40.116;18.296;2023-05-10T04:33:34;7.53;;;5.83;;
51810;SDS011;52468;40.116;18.296;2023-05-10T04:36:03;8.37;;;5.93;;
51810;SDS011;52468;40.116;18.296;2023-05-10T04:38:31;7.87;;;5.43;;
51810;SDS011;52468;40.116;18.296;2023-05-10T04:41:06;8.50;;;5.70;;
51810;SDS011;52468;40.116;18.296;2023-05-10T04:43:34;9.20;;;4.93;;
51810;SDS011;52468;40.116;18.296;2023-05-10T04:46:03;10.63;;;6.10;;
51810;SDS011;52468;40.116;18.296;2023-05-10T04:48:31;7.93;;;5.23;;
51810;SDS011;52468;40.116;18.296;2023-05-10T04:51:00;5.50;;;4.90;;
51810;SDS011;52468;40.116;18.296;2023-05-10T04:53:28;7.30;;;4.77;;
51810;SDS011;52468;40.116;18.296;2023-05-10T04:55:56;8.87;;;5.80;;
51810;SDS011;52468;40.116;18.296;2023-05-10T04:58:24;8.50;;;5.67;;
51810;SDS011;52468;40.116;18.296;2023-05-10T05:00:52;7.53;;;5.90;;
51810;SDS011;52468;40.116;18.296;2023-05-10T05:03:20;9.10;;;5.03;;
51810;SDS011;52468;40.116;18.296;2023-05-10T05:05:48;9.50;;;6.47;;
51810;SDS011;52468;40.116;18.296;2023-05-10T05:08:15;7.33;;;6.27;;
51810;SDS011;52468;40.116;18.296;2023-05-10T05:10:43;6.90;;;5.63;;
51810;SDS011;52468;40.116;18.296;2023-05-10T05:13:12;12.10;;;5.60;;
51810;SDS011;52468;40.116;18.296;2023-05-10T05:15:39;8.00;;;6.17;;
51810;SDS011;52468;40.116;18.296;2023-05-10T05:18:07;8.30;;;5.90;;
51810;SDS011;52468;40.116;18.296;2023-05-10T05:20:35;7.30;;;5.83;;
51810;SDS011;52468;40.116;18.296;2023-05-10T05:23:03;9.10;;;5.47;;
51810;SDS011;52468;40.116;18.296;2023-05-10T05:25:31;11.67;;;5.07;;
51810;SDS011;52468;40.116;18.296;2023-05-10T05:27:59;7.43;;;5.27;;
51810;SDS011;52468;40.116;18.296;2023-05-10T05:30:27;7.57;;;4.53;;
51810;SDS011;52468;40.116;18.296;2023-05-10T05:32:55;6.00;;;4.00;;
51810;SDS011;52468;40.116;18.296;2023-05-10T05:35:23;4.80;;;4.07;;
51810;SDS011;52468;40.116;18.296;2023-05-10T05:37:51;5.87;;;4.30;;
51810;SDS011;52468;40.116;18.296;2023-05-10T05:40:19;6.57;;;4.10;;
51810;SDS011;52468;40.116;18.296;2023-05-10T05:42:47;7.93;;;4.97;;
51810;SDS011;52468;40.116;18.296;2023-05-10T05:45:16;7.37;;;4.73;;
51810;SDS011;52468;40.116;18.296;2023-05-10T05:47:44;6.87;;;4.20;;
51810;SDS011;52468;40.116;18.296;2023-05-10T05:50:12;6.97;;;4.77;;
51810;SDS011;52468;40.116;18.296;2023-05-10T05:52:40;6.03;;;5.00;;
51810;SDS011;52468;40.116;18.296;2023-05-10T05:55:08;6.57;;;4.87;;
51810;SDS011;52468;40.116;18.296;2023-05-10T05:57:35;6.30;;;4.57;;
51810;SDS011;52468;40.116;18.296;2023-05-10T06:00:04;7.50;;;4.77;;
51810;SDS011;52468;40.116;18.296;2023-05-10T06:02:38;6.37;;;3.63;;
51810;SDS011;52468;40.116;18.296;2023-05-10T06:05:06;5.23;;;4.73;;
51810;SDS011;52468;40.116;18.296;2023-05-10T06:07:34;4.73;;;3.90;;
51810;SDS011;52468;40.116;18.296;2023-05-10T06:10:02;9.13;;;5.63;;
51810;SDS011;52468;40.116;18.296;2023-05-10T06:12:30;6.73;;;4.57;;
51810;SDS011;52468;40.116;18.296;2023-05-10T06:14:58;5.97;;;3.97;;
51810;SDS011;52468;40.116;18.296;2023-05-10T06:17:26;5.97;;;4.33;;
51810;SDS011;52468;40.116;18.296;2023-05-10T06:19:55;5.23;;;3.70;;
51810;SDS011;52468;40.116;18.296;2023-05-10T06:22:23;4.70;;;3.50;;
51810;SDS011;52468;40.116;18.296;2023-05-10T06:24:50;6.00;;;3.40;;
51810;SDS011;52468;40.116;18.296;2023-05-10T06:27:18;5.00;;;3.60;;
51810;SDS011;52468;40.116;18.296;2023-05-10T06:29:46;4.90;;;3.70;;
51810;SDS011;52468;40.116;18.296;2023-05-10T06:32:14;5.80;;;2.90;;
51810;SDS011;52468;40.116;18.296;2023-05-10T06:34:42;4.57;;;4.17;;
51810;SDS011;52468;40.116;18.296;2023-05-10T06:37:10;7.73;;;3.57;;
51810;SDS011;52468;40.116;18.296;2023-05-10T06:39:38;6.40;;;4.00;;
51810;SDS011;52468;40.116;18.296;2023-05-10T06:42:06;5.83;;;3.50;;
51810;SDS011;52468;40.116;18.296;2023-05-10T06:44:34;5.80;;;4.30;;
51810;SDS011;52468;40.116;18.296;2023-05-10T06:47:02;5.53;;;3.70;;
51810;SDS011;52468;40.116;18.296;2023-05-10T06:49:30;5.03;;;3.70;;
51810;SDS011;52468;40.116;18.296;2023-05-10T06:51:58;5.50;;;4.10;;
51810;SDS011;52468;40.116;18.296;2023-05-10T06:54:26;5.70;;;3.43;;
51810;SDS011;52468;40.116;18.296;2023-05-10T06:56:54;4.63;;;3.50;;
51810;SDS011;52468;40.116;18.296;2023-05-10T06:59:21;5.03;;;4.27;;
51810;SDS011;52468;40.116;18.296;2023-05-10T07:01:49;4.23;;;3.83;;
51810;SDS011;52468;40.116;18.296;2023-05-10T07:04:17;4.50;;;3.90;;
51810;SDS011;52468;40.116;18.296;2023-05-10T07:06:45;4.47;;;3.67;;
51810;SDS011;52468;40.116;18.296;2023-05-10T07:09:13;7.73;;;3.80;;
51810;SDS011;52468;40.116;18.296;2023-05-10T07:11:41;5.57;;;3.73;;
51810;SDS011;52468;40.116;18.296;2023-05-10T07:14:09;9.57;;;4.23;;
51810;SDS011;52468;40.116;18.296;2023-05-10T07:16:37;6.77;;;3.80;;
51810;SDS011;52468;40.116;18.296;2023-05-10T07:19:04;6.53;;;4.17;;
51810;SDS011;52468;40.116;18.296;2023-05-10T07:21:32;7.30;;;4.57;;
51810;SDS011;52468;40.116;18.296;2023-05-10T07:24:00;4.77;;;4.37;;
51810;SDS011;52468;40.116;18.296;2023-05-10T07:26:28;5.90;;;3.93;;
51810;SDS011;52468;40.116;18.296;2023-05-10T07:28:56;5.33;;;4.17;;
51810;SDS011;52468;40.116;18.296;2023-05-10T07:31:24;4.33;;;3.67;;
51810;SDS011;52468;40.116;18.296;2023-05-10T07:33:52;6.47;;;3.63;;
51810;SDS011;52468;40.116;18.296;2023-05-10T07:36:20;6.03;;;3.80;;
51810;SDS011;52468;40.116;18.296;2023-05-10T07:38:48;4.83;;;3.47;;
51810;SDS011;52468;40.116;18.296;2023-05-10T07:41:16;5.77;;;4.60;;
51810;SDS011;52468;40.116;18.296;2023-05-10T07:43:44;5.50;;;4.40;;
51810;SDS011;52468;40.116;18.296;2023-05-10T07:46:12;5.63;;;4.47;;
51810;SDS011;52468;40.116;18.296;2023-05-10T07:48:40;4.50;;;4.10;;
51810;SDS011;52468;40.116;18.296;2023-05-10T07:51:08;5.67;;;4.27;;
51810;SDS011;52468;40.116;18.296;2023-05-10T07:53:37;7.33;;;3.87;;
51810;SDS011;52468;40.116;18.296;2023-05-10T07:58:57;6.37;;;5.03;;
51810;SDS011;52468;40.116;18.296;2023-05-10T08:01:31;8.10;;;5.80;;
51810;SDS011;52468;40.116;18.296;2023-05-10T08:04:00;5.90;;;5.13;;
51810;SDS011;52468;40.116;18.296;2023-05-10T08:06:29;7.17;;;5.17;;
51810;SDS011;52468;40.116;18.296;2023-05-10T08:08:57;5.23;;;4.73;;
51810;SDS011;52468;40.116;18.296;2023-05-10T08:11:25;7.23;;;4.33;;
51810;SDS011;52468;40.116;18.296;2023-05-10T08:13:54;5.50;;;4.27;;
51810;SDS011;52468;40.116;18.296;2023-05-10T08:16:22;7.50;;;4.30;;
51810;SDS011;52468;40.116;18.296;2023-05-10T08:18:53;8.47;;;4.50;;
51810;SDS011;52468;40.116;18.296;2023-05-10T08:21:22;7.17;;;4.57;;
51810;SDS011;52468;40.116;18.296;2023-05-10T08:23:50;9.88;;;4.13;;
51810;SDS011;52468;40.116;18.296;2023-05-10T08:26:18;5.80;;;4.40;;
51810;SDS011;52468;40.116;18.296;2023-05-10T08:28:45;4.03;;;3.33;;
51810;SDS011;52468;40.116;18.296;2023-05-10T08:31:13;9.43;;;4.18;;
51810;SDS011;52468;40.116;18.296;2023-05-10T08:33:42;4.72;;;4.22;;
51810;SDS011;52468;40.116;18.296;2023-05-10T08:36:10;6.18;;;4.15;;
51810;SDS011;52468;40.116;18.296;2023-05-10T08:38:41;5.20;;;3.80;;
51810;SDS011;52468;40.116;18.296;2023-05-10T08:41:08;6.65;;;3.67;;
51810;SDS011;52468;40.116;18.296;2023-05-10T08:43:37;5.17;;;3.83;;
51810;SDS011;52468;40.116;18.296;2023-05-10T08:46:08;8.47;;;4.60;;
51810;SDS011;52468;40.116;18.296;2023-05-10T08:48:37;4.47;;;3.58;;
51810;SDS011;52468;40.116;18.296;2023-05-10T08:51:05;7.88;;;3.30;;
51810;SDS011;52468;40.116;18.296;2023-05-10T08:53:35;5.20;;;3.10;;
51810;SDS011;52468;40.116;18.296;2023-05-10T08:56:04;4.65;;;3.40;;
51810;SDS011;52468;40.116;18.296;2023-05-10T08:58:32;4.53;;;2.80;;
51810;SDS011;52468;40.116;18.296;2023-05-10T09:01:00;4.65;;;2.30;;
51810;SDS011;52468;40.116;18.296;2023-05-10T09:03:28;4.13;;;2.40;;
51810;SDS011;52468;40.116;18.296;2023-05-10T09:05:57;3.17;;;2.60;;
51810;SDS011;52468;40.116;18.296;2023-05-10T09:08:25;2.38;;;2.17;;
51810;SDS011;52468;40.116;18.296;2023-05-10T09:10:54;3.90;;;2.47;;
51810;SDS011;52468;40.116;18.296;2023-05-10T09:13:22;2.92;;;2.50;;
51810;SDS011;52468;40.116;18.296;2023-05-10T09:15:53;5.57;;;2.97;;
51810;SDS011;52468;40.116;18.296;2023-05-10T09:18:21;2.83;;;2.38;;
51810;SDS011;52468;40.116;18.296;2023-05-10T09:20:49;1.75;;;1.65;;
51810;SDS011;52468;40.116;18.296;2023-05-10T09:23:17;3.72;;;2.22;;
51810;SDS011;52468;40.116;18.296;2023-05-10T09:25:44;3.60;;;2.50;;
51810;SDS011;52468;40.116;18.296;2023-05-10T09:28:13;3.10;;;1.73;;
51810;SDS011;52468;40.116;18.296;2023-05-10T09:30:41;4.18;;;2.38;;
51810;SDS011;52468;40.116;18.296;2023-05-10T09:33:09;2.97;;;2.58;;
51810;SDS011;52468;40.116;18.296;2023-05-10T09:35:37;2.15;;;1.80;;
51810;SDS011;52468;40.116;18.296;2023-05-10T09:38:07;3.33;;;2.67;;
51810;SDS011;52468;40.116;18.296;2023-05-10T09:40:35;4.75;;;2.33;;
51810;SDS011;52468;40.116;18.296;2023-05-10T09:43:03;2.67;;;2.00;;
51810;SDS011;52468;40.116;18.296;2023-05-10T09:45:35;2.88;;;2.40;;
51810;SDS011;52468;40.116;18.296;2023-05-10T09:48:04;5.60;;;2.30;;
51810;SDS011;52468;40.116;18.296;2023-05-10T09:50:33;2.88;;;2.25;;
51810;SDS011;52468;40.116;18.296;2023-05-10T09:53:02;5.72;;;2.05;;
51810;SDS011;52468;40.116;18.296;2023-05-10T09:55:40;2.40;;;2.20;;
51810;SDS011;52468;40.116;18.296;2023-05-10T09:58:15;3.92;;;2.20;;
51810;SDS011;52468;40.116;18.296;2023-05-10T10:00:44;3.70;;;2.38;;
51810;SDS011;52468;40.116;18.296;2023-05-10T10:03:15;4.53;;;2.67;;
51810;SDS011;52468;40.116;18.296;2023-05-10T10:05:44;2.60;;;2.28;;
51810;SDS011;52468;40.116;18.296;2023-05-10T10:08:14;2.22;;;2.03;;
51810;SDS011;52468;40.116;18.296;2023-05-10T10:10:43;3.58;;;2.10;;
51810;SDS011;52468;40.116;18.296;2023-05-10T10:13:13;4.18;;;3.08;;
51810;SDS011;52468;40.116;18.296;2023-05-10T10:15:42;4.03;;;2.20;;
51810;SDS011;52468;40.116;18.296;2023-05-10T10:18:14;2.97;;;2.15;;
51810;SDS011;52468;40.116;18.296;2023-05-10T10:20:42;2.72;;;2.50;;
51810;SDS011;52468;40.116;18.296;2023-05-10T10:23:10;2.17;;;1.83;;
51810;SDS011;52468;40.116;18.296;2023-05-10T10:25:38;2.78;;;2.05;;
51810;SDS011;52468;40.116;18.296;2023-05-10T10:30:49;3.55;;;2.40;;
51810;SDS011;52468;40.116;18.296;2023-05-10T10:36:08;3.13;;;2.13;;
51810;SDS011;52468;40.116;18.296;2023-05-10T10:38:36;2.97;;;2.10;;
51810;SDS011;52468;40.116;18.296;2023-05-10T10:41:26;3.22;;;2.38;;
51810;SDS011;52468;40.116;18.296;2023-05-10T10:49:33;4.45;;;2.33;;
51810;SDS011;52468;40.116;18.296;2023-05-10T10:57:54;3.28;;;1.77;;
51810;SDS011;52468;40.116;18.296;2023-05-10T11:00:34;2.45;;;1.90;;
51810;SDS011;52468;40.116;18.296;2023-05-10T11:03:08;2.42;;;2.05;;
51810;SDS011;52468;40.116;18.296;2023-05-10T11:05:43;4.93;;;2.05;;
51810;SDS011;52468;40.116;18.296;2023-05-10T11:08:19;6.63;;;2.22;;
51810;SDS011;52468;40.116;18.296;2023-05-10T11:13:43;2.33;;;1.88;;
51810;SDS011;52468;40.116;18.296;2023-05-10T11:16:19;2.47;;;2.00;;
51810;SDS011;52468;40.116;18.296;2023-05-10T11:21:32;2.30;;;2.10;;
51810;SDS011;52468;40.116;18.296;2023-05-10T11:24:01;4.50;;;2.17;;
51810;SDS011;52468;40.116;18.296;2023-05-10T11:26:35;2.95;;;2.10;;
51810;SDS011;52468;40.116;18.296;2023-05-10T11:29:04;2.67;;;2.17;;
51810;SDS011;52468;40.116;18.296;2023-05-10T11:31:32;5.80;;;2.25;;
51810;SDS011;52468;40.116;18.296;2023-05-10T11:34:00;3.95;;;1.90;;
51810;SDS011;52468;40.116;18.296;2023-05-10T11:36:34;2.28;;;1.90;;
51810;SDS011;52468;40.116;18.296;2023-05-10T11:39:03;4.75;;;2.35;;
51810;SDS011;52468;40.116;18.296;2023-05-10T11:41:32;2.08;;;1.75;;
51810;SDS011;52468;40.116;18.296;2023-05-10T11:44:00;6.15;;;1.80;;
51810;SDS011;52468;40.116;18.296;2023-05-10T11:46:29;2.65;;;1.80;;
51810;SDS011;52468;40.116;18.296;2023-05-10T11:48:58;4.35;;;1.70;;
51810;SDS011;52468;40.116;18.296;2023-05-10T11:51:32;9.45;;;6.22;;
51810;SDS011;52468;40.116;18.296;2023-05-10T11:54:06;6.95;;;2.13;;
51810;SDS011;52468;40.116;18.296;2023-05-10T11:56:37;3.88;;;2.42;;
51810;SDS011;52468;40.116;18.296;2023-05-10T11:59:08;5.65;;;2.42;;
51810;SDS011;52468;40.116;18.296;2023-05-10T12:01:36;4.13;;;2.27;;
51810;SDS011;52468;40.116;18.296;2023-05-10T12:04:04;3.93;;;1.80;;
51810;SDS011;52468;40.116;18.296;2023-05-10T12:06:34;3.83;;;2.60;;
51810;SDS011;52468;40.116;18.296;2023-05-10T12:09:07;2.57;;;1.90;;
51810;SDS011;52468;40.116;18.296;2023-05-10T12:11:39;2.57;;;2.03;;
51810;SDS011;52468;40.116;18.296;2023-05-10T12:14:09;3.20;;;2.10;;
51810;SDS011;52468;40.116;18.296;2023-05-10T12:16:37;2.70;;;2.10;;
51810;SDS011;52468;40.116;18.296;2023-05-10T12:19:05;3.23;;;2.27;;
51810;SDS011;52468;40.116;18.296;2023-05-10T12:21:37;1.93;;;1.73;;
51810;SDS011;52468;40.116;18.296;2023-05-10T12:24:06;2.07;;;1.87;;
51810;SDS011;52468;40.116;18.296;2023-05-10T12:26:36;2.42;;;1.95;;
51810;SDS011;52468;40.116;18.296;2023-05-10T12:31:50;6.57;;;2.05;;
51810;SDS011;52468;40.116;18.296;2023-05-10T12:34:25;2.45;;;2.20;;
51810;SDS011;52468;40.116;18.296;2023-05-10T12:37:00;2.15;;;1.90;;
51810;SDS011;52468;40.116;18.296;2023-05-10T12:39:42;4.38;;;2.58;;
51810;SDS011;52468;40.116;18.296;2023-05-10T12:42:13;4.03;;;2.42;;
51810;SDS011;52468;40.116;18.296;2023-05-10T12:44:40;7.30;;;3.50;;
51810;SDS011;52468;40.116;18.296;2023-05-10T12:47:08;3.00;;;2.20;;
51810;SDS011;52468;40.116;18.296;2023-05-10T12:49:36;2.70;;;2.40;;
51810;SDS011;52468;40.116;18.296;2023-05-10T12:52:04;2.90;;;2.47;;
51810;SDS011;52468;40.116;18.296;2023-05-10T12:54:32;3.33;;;2.13;;
51810;SDS011;52468;40.116;18.296;2023-05-10T12:57:00;2.67;;;1.90;;
51810;SDS011;52468;40.116;18.296;2023-05-10T12:59:27;1.93;;;1.83;;
51810;SDS011;52468;40.116;18.296;2023-05-10T13:01:56;4.63;;;2.20;;
51810;SDS011;52468;40.116;18.296;2023-05-10T13:04:25;2.87;;;2.17;;
51810;SDS011;52468;40.116;18.296;2023-05-10T13:06:52;3.97;;;2.40;;
51810;SDS011;52468;40.116;18.296;2023-05-10T13:09:23;2.70;;;2.10;;
51810;SDS011;52468;40.116;18.296;2023-05-10T13:11:51;3.57;;;2.13;;
51810;SDS011;52468;40.116;18.296;2023-05-10T13:14:20;2.33;;;1.67;;
51810;SDS011;52468;40.116;18.296;2023-05-10T13:16:48;3.03;;;2.20;;
51810;SDS011;52468;40.116;18.296;2023-05-10T13:19:16;2.57;;;1.80;;
51810;SDS011;52468;40.116;18.296;2023-05-10T13:21:44;2.37;;;2.17;;
51810;SDS011;52468;40.116;18.296;2023-05-10T13:24:12;3.83;;;2.20;;
51810;SDS011;52468;40.116;18.296;2023-05-10T13:26:40;3.23;;;2.00;;
51810;SDS011;52468;40.116;18.296;2023-05-10T13:29:08;4.07;;;2.27;;
51810;SDS011;52468;40.116;18.296;2023-05-10T13:31:36;3.33;;;2.03;;
51810;SDS011;52468;40.116;18.296;2023-05-10T13:34:04;2.27;;;1.77;;
51810;SDS011;52468;40.116;18.296;2023-05-10T13:36:32;3.80;;;2.13;;
51810;SDS011;52468;40.116;18.296;2023-05-10T13:39:00;2.03;;;1.80;;
51810;SDS011;52468;40.116;18.296;2023-05-10T13:41:30;10.87;;;2.90;;
51810;SDS011;52468;40.116;18.296;2023-05-10T13:43:58;4.63;;;2.43;;
51810;SDS011;52468;40.116;18.296;2023-05-10T13:46:26;2.23;;;2.00;;
51810;SDS011;52468;40.116;18.296;2023-05-10T13:48:53;2.83;;;2.10;;
51810;SDS011;52468;40.116;18.296;2023-05-10T13:51:21;5.00;;;2.07;;
51810;SDS011;52468;40.116;18.296;2023-05-10T13:53:49;2.40;;;2.20;;
51810;SDS011;52468;40.116;18.296;2023-05-10T13:56:17;3.57;;;2.00;;
51810;SDS011;52468;40.116;18.296;2023-05-10T13:58:45;3.30;;;2.17;;
51810;SDS011;52468;40.116;18.296;2023-05-10T14:01:13;2.27;;;2.00;;
51810;SDS011;52468;40.116;18.296;2023-05-10T14:03:41;2.67;;;2.07;;
51810;SDS011;52468;40.116;18.296;2023-05-10T14:06:09;2.93;;;2.30;;
51810;SDS011;52468;40.116;18.296;2023-05-10T14:08:36;2.53;;;2.33;;
51810;SDS011;52468;40.116;18.296;2023-05-10T14:11:04;3.13;;;2.37;;
51810;SDS011;52468;40.116;18.296;2023-05-10T14:13:32;2.37;;;1.87;;
51810;SDS011;52468;40.116;18.296;2023-05-10T14:16:00;1.80;;;1.67;;
51810;SDS011;52468;40.116;18.296;2023-05-10T14:18:28;4.07;;;2.17;;
51810;SDS011;52468;40.116;18.296;2023-05-10T14:20:55;1.77;;;1.60;;
51810;SDS011;52468;40.116;18.296;2023-05-10T14:23:23;3.93;;;2.10;;
51810;SDS011;52468;40.116;18.296;2023-05-10T14:25:52;3.23;;;1.90;;
51810;SDS011;52468;40.116;18.296;2023-05-10T14:28:20;3.07;;;1.87;;
51810;SDS011;52468;40.116;18.296;2023-05-10T14:30:47;3.27;;;1.70;;
51810;SDS011;52468;40.116;18.296;2023-05-10T14:33:16;4.00;;;3.10;;
51810;SDS011;52468;40.116;18.296;2023-05-10T14:35:44;4.43;;;3.33;;
51810;SDS011;52468;40.116;18.296;2023-05-10T14:38:13;2.87;;;2.57;;
51810;SDS011;52468;40.116;18.296;2023-05-10T14:40:42;5.50;;;2.80;;
51810;SDS011;52468;40.116;18.296;2023-05-10T14:43:10;3.10;;;2.37;;
51810;SDS011;52468;40.116;18.296;2023-05-10T14:45:37;5.93;;;2.37;;
51810;SDS011;52468;40.116;18.296;2023-05-10T14:48:05;2.70;;;2.37;;
51810;SDS011;52468;40.116;18.296;2023-05-10T14:50:35;5.93;;;2.60;;
51810;SDS011;52468;40.116;18.296;2023-05-10T14:53:03;2.77;;;2.50;;
51810;SDS011;52468;40.116;18.296;2023-05-10T14:55:31;5.57;;;2.50;;
51810;SDS011;52468;40.116;18.296;2023-05-10T14:57:59;3.57;;;2.20;;
51810;SDS011;52468;40.116;18.296;2023-05-10T15:00:28;3.57;;;2.70;;
51810;SDS011;52468;40.116;18.296;2023-05-10T15:02:57;3.90;;;2.30;;
51810;SDS011;52468;40.116;18.296;2023-05-10T15:05:24;2.80;;;2.40;;
51810;SDS011;52468;40.116;18.296;2023-05-10T15:07:52;2.57;;;2.37;;
51810;SDS011;52468;40.116;18.296;2023-05-10T15:10:20;3.83;;;2.27;;
51810;SDS011;52468;40.116;18.296;2023-05-10T15:12:48;3.60;;;2.40;;
51810;SDS011;52468;40.116;18.296;2023-05-10T15:15:17;4.03;;;2.97;;
51810;SDS011;52468;40.116;18.296;2023-05-10T15:17:45;3.90;;;3.10;;
51810;SDS011;52468;40.116;18.296;2023-05-10T15:20:13;5.63;;;3.57;;
51810;SDS011;52468;40.116;18.296;2023-05-10T15:22:41;4.30;;;2.70;;
51810;SDS011;52468;40.116;18.296;2023-05-10T15:25:08;5.07;;;2.90;;
51810;SDS011;52468;40.116;18.296;2023-05-10T15:27:36;5.53;;;3.93;;
51810;SDS011;52468;40.116;18.296;2023-05-10T15:30:04;6.27;;;3.40;;
51810;SDS011;52468;40.116;18.296;2023-05-10T15:32:33;4.57;;;3.63;;
51810;SDS011;52468;40.116;18.296;2023-05-10T15:35:01;4.53;;;3.30;;
51810;SDS011;52468;40.116;18.296;2023-05-10T15:37:29;3.47;;;3.10;;
51810;SDS011;52468;40.116;18.296;2023-05-10T15:39:57;8.40;;;3.63;;
51810;SDS011;52468;40.116;18.296;2023-05-10T15:42:31;4.60;;;3.33;;